< < Back
Terminal Aerodrome Forecast


Current Version              Previous Versions:   1  2  3  4  5  6  7  8  9  

Terminal Aerodrome Forecast

452
FTUS42 KTAE 271725
TAFABY
TAF
KABY 271725Z 2718/2818 25006KT P6SM SCT030=

Latest METAR

068
SAUS70 KWBC 271800 RRS
MTRABY
METAR KABY 271753Z 10SM CLR 32/21 A3009 RMK AO2 SLP185 T03220206 10322
20217 58011


USA.gov is the U.S. government's official web portal to all federal, state and local government web resources and services.